sensor_id;sensor_type;location;lat;lon;timestamp;pressure;altitude;pressure_sealevel;temperature;humidity
35848;BME280;22332;51.954;20.118;2022-11-20T00:02:22;99996.24;;;-2.25;65.19
35848;BME280;22332;51.954;20.118;2022-11-20T00:05:24;99996.81;;;-2.26;65.36
35848;BME280;22332;51.954;20.118;2022-11-20T00:08:27;99992.20;;;-2.28;65.18
35848;BME280;22332;51.954;20.118;2022-11-20T00:11:31;99985.86;;;-2.29;65.09
35848;BME280;22332;51.954;20.118;2022-11-20T00:14:34;99981.62;;;-2.32;65.38
35848;BME280;22332;51.954;20.118;2022-11-20T00:17:37;99982.84;;;-2.35;65.30
35848;BME280;22332;51.954;20.118;2022-11-20T00:20:39;99983.55;;;-2.39;65.29
35848;BME280;22332;51.954;20.118;2022-11-20T00:23:42;99980.00;;;-2.42;65.20
35848;BME280;22332;51.954;20.118;2022-11-20T00:26:45;99979.94;;;-2.44;65.22
35848;BME280;22332;51.954;20.118;2022-11-20T00:29:47;99980.04;;;-2.46;65.47
35848;BME280;22332;51.954;20.118;2022-11-20T00:32:50;99982.45;;;-2.49;65.21
35848;BME280;22332;51.954;20.118;2022-11-20T00:35:53;99980.94;;;-2.50;65.63
35848;BME280;22332;51.954;20.118;2022-11-20T00:38:57;99981.00;;;-2.48;65.47
35848;BME280;22332;51.954;20.118;2022-11-20T00:42:00;99983.97;;;-2.48;65.42
35848;BME280;22332;51.954;20.118;2022-11-20T00:45:04;99987.02;;;-2.50;65.56
35848;BME280;22332;51.954;20.118;2022-11-20T00:48:07;99986.40;;;-2.48;65.37
35848;BME280;22332;51.954;20.118;2022-11-20T00:51:10;99988.90;;;-2.49;65.56
35848;BME280;22332;51.954;20.118;2022-11-20T00:54:13;99982.59;;;-2.48;65.51
35848;BME280;22332;51.954;20.118;2022-11-20T00:57:16;99980.61;;;-2.47;65.75
35848;BME280;22332;51.954;20.118;2022-11-20T01:00:19;99975.95;;;-2.44;65.46
35848;BME280;22332;51.954;20.118;2022-11-20T01:03:21;99975.23;;;-2.40;65.89
35848;BME280;22332;51.954;20.118;2022-11-20T01:06:25;99972.60;;;-2.40;65.48
35848;BME280;22332;51.954;20.118;2022-11-20T01:09:29;99974.56;;;-2.41;65.52
35848;BME280;22332;51.954;20.118;2022-11-20T01:12:34;99973.00;;;-2.41;65.68
35848;BME280;22332;51.954;20.118;2022-11-20T01:15:37;99971.39;;;-2.40;65.63
35848;BME280;22332;51.954;20.118;2022-11-20T01:18:41;99965.34;;;-2.41;65.73
35848;BME280;22332;51.954;20.118;2022-11-20T01:21:47;99965.83;;;-2.41;65.72
35848;BME280;22332;51.954;20.118;2022-11-20T01:24:50;99960.09;;;-2.40;65.86
35848;BME280;22332;51.954;20.118;2022-11-20T01:27:52;99962.05;;;-2.42;65.61
35848;BME280;22332;51.954;20.118;2022-11-20T01:30:55;99957.79;;;-2.43;65.75
35848;BME280;22332;51.954;20.118;2022-11-20T01:34:00;99958.98;;;-2.46;65.91
35848;BME280;22332;51.954;20.118;2022-11-20T01:37:03;99953.90;;;-2.49;65.72
35848;BME280;22332;51.954;20.118;2022-11-20T01:40:08;99949.77;;;-2.50;66.12
35848;BME280;22332;51.954;20.118;2022-11-20T01:43:14;99954.70;;;-2.47;65.82
35848;BME280;22332;51.954;20.118;2022-11-20T01:46:25;99951.98;;;-2.42;66.34
35848;BME280;22332;51.954;20.118;2022-11-20T01:49:34;99945.16;;;-2.34;66.47
35848;BME280;22332;51.954;20.118;2022-11-20T01:52:42;99948.46;;;-2.28;66.33
35848;BME280;22332;51.954;20.118;2022-11-20T01:55:51;99933.75;;;-2.23;66.23
35848;BME280;22332;51.954;20.118;2022-11-20T01:58:57;99934.00;;;-2.21;66.27
35848;BME280;22332;51.954;20.118;2022-11-20T02:02:01;99941.52;;;-2.22;66.28
35848;BME280;22332;51.954;20.118;2022-11-20T02:05:11;99951.19;;;-2.26;66.03
35848;BME280;22332;51.954;20.118;2022-11-20T02:08:18;99947.81;;;-2.32;66.22
35848;BME280;22332;51.954;20.118;2022-11-20T02:11:22;99955.19;;;-2.36;65.95
35848;BME280;22332;51.954;20.118;2022-11-20T02:14:25;99959.59;;;-2.41;66.07
35848;BME280;22332;51.954;20.118;2022-11-20T02:17:28;99957.49;;;-2.48;66.06
35848;BME280;22332;51.954;20.118;2022-11-20T02:20:31;99956.94;;;-2.54;66.03
35848;BME280;22332;51.954;20.118;2022-11-20T02:23:39;99954.40;;;-2.63;66.04
35848;BME280;22332;51.954;20.118;2022-11-20T02:26:46;99953.59;;;-2.74;66.13
35848;BME280;22332;51.954;20.118;2022-11-20T02:29:53;99957.68;;;-2.83;66.19
35848;BME280;22332;51.954;20.118;2022-11-20T02:32:57;99963.36;;;-2.89;66.16
35848;BME280;22332;51.954;20.118;2022-11-20T02:35:59;99965.07;;;-2.95;66.60
35848;BME280;22332;51.954;20.118;2022-11-20T02:39:03;99963.92;;;-3.00;66.50
35848;BME280;22332;51.954;20.118;2022-11-20T02:42:06;99961.31;;;-3.04;66.51
35848;BME280;22332;51.954;20.118;2022-11-20T02:45:09;99960.23;;;-3.10;66.39
35848;BME280;22332;51.954;20.118;2022-11-20T02:48:12;99963.02;;;-3.18;66.51
35848;BME280;22332;51.954;20.118;2022-11-20T02:51:15;99960.44;;;-3.22;66.51
35848;BME280;22332;51.954;20.118;2022-11-20T02:54:17;99952.02;;;-3.25;66.59
35848;BME280;22332;51.954;20.118;2022-11-20T02:57:20;99947.81;;;-3.24;66.68
35848;BME280;22332;51.954;20.118;2022-11-20T03:00:23;99951.06;;;-3.26;66.53
35848;BME280;22332;51.954;20.118;2022-11-20T03:03:25;99954.23;;;-3.31;66.50
35848;BME280;22332;51.954;20.118;2022-11-20T03:06:28;99947.33;;;-3.36;66.89
35848;BME280;22332;51.954;20.118;2022-11-20T03:09:31;99941.20;;;-3.42;66.57
35848;BME280;22332;51.954;20.118;2022-11-20T03:12:33;99942.91;;;-3.48;66.67
35848;BME280;22332;51.954;20.118;2022-11-20T03:15:36;99938.80;;;-3.54;66.35
35848;BME280;22332;51.954;20.118;2022-11-20T03:18:39;99936.45;;;-3.60;66.85
35848;BME280;22332;51.954;20.118;2022-11-20T03:21:42;99932.70;;;-3.65;66.74
35848;BME280;22332;51.954;20.118;2022-11-20T03:24:45;99929.63;;;-3.70;66.96
35848;BME280;22332;51.954;20.118;2022-11-20T03:27:48;99932.61;;;-3.74;66.97
35848;BME280;22332;51.954;20.118;2022-11-20T03:30:50;99934.88;;;-3.79;66.91
35848;BME280;22332;51.954;20.118;2022-11-20T03:33:53;99929.53;;;-3.83;66.92
35848;BME280;22332;51.954;20.118;2022-11-20T03:36:56;99934.34;;;-3.89;67.09
35848;BME280;22332;51.954;20.118;2022-11-20T03:39:59;99937.27;;;-3.93;67.31
35848;BME280;22332;51.954;20.118;2022-11-20T03:43:01;99942.32;;;-3.93;67.12
35848;BME280;22332;51.954;20.118;2022-11-20T03:46:05;99944.44;;;-3.90;67.24
35848;BME280;22332;51.954;20.118;2022-11-20T03:49:08;99945.36;;;-3.83;67.37
35848;BME280;22332;51.954;20.118;2022-11-20T03:52:11;99945.40;;;-3.73;67.23
35848;BME280;22332;51.954;20.118;2022-11-20T03:55:14;99944.98;;;-3.63;67.07
35848;BME280;22332;51.954;20.118;2022-11-20T03:58:16;99944.95;;;-3.56;67.07
35848;BME280;22332;51.954;20.118;2022-11-20T04:01:21;99944.17;;;-3.50;67.06
35848;BME280;22332;51.954;20.118;2022-11-20T04:04:25;99946.36;;;-3.45;66.89
35848;BME280;22332;51.954;20.118;2022-11-20T04:07:27;99943.73;;;-3.44;66.84
35848;BME280;22332;51.954;20.118;2022-11-20T04:10:30;99949.39;;;-3.46;67.04
35848;BME280;22332;51.954;20.118;2022-11-20T04:13:32;99948.64;;;-3.48;67.13
35848;BME280;22332;51.954;20.118;2022-11-20T04:16:36;99948.25;;;-3.51;67.29
35848;BME280;22332;51.954;20.118;2022-11-20T04:19:39;99951.59;;;-3.52;67.35
35848;BME280;22332;51.954;20.118;2022-11-20T04:22:41;99950.73;;;-3.53;67.17
35848;BME280;22332;51.954;20.118;2022-11-20T04:25:44;99938.65;;;-3.58;67.22
35848;BME280;22332;51.954;20.118;2022-11-20T04:28:47;99940.73;;;-3.58;67.36
35848;BME280;22332;51.954;20.118;2022-11-20T04:31:49;99936.98;;;-3.64;67.12
35848;BME280;22332;51.954;20.118;2022-11-20T04:34:52;99936.44;;;-3.71;67.23
35848;BME280;22332;51.954;20.118;2022-11-20T04:37:55;99938.95;;;-3.80;67.53
35848;BME280;22332;51.954;20.118;2022-11-20T04:40:58;99933.54;;;-3.83;67.67
35848;BME280;22332;51.954;20.118;2022-11-20T04:44:03;99937.08;;;-3.85;67.59
35848;BME280;22332;51.954;20.118;2022-11-20T04:47:06;99932.14;;;-3.87;67.61
35848;BME280;22332;51.954;20.118;2022-11-20T04:50:09;99929.51;;;-3.90;67.68
35848;BME280;22332;51.954;20.118;2022-11-20T04:53:12;99926.98;;;-3.96;67.59
35848;BME280;22332;51.954;20.118;2022-11-20T04:56:15;99921.40;;;-4.00;67.85
35848;BME280;22332;51.954;20.118;2022-11-20T04:59:18;99916.64;;;-4.02;67.66
35848;BME280;22332;51.954;20.118;2022-11-20T05:02:22;99917.46;;;-4.04;68.13
35848;BME280;22332;51.954;20.118;2022-11-20T05:05:25;99913.42;;;-4.07;67.84
35848;BME280;22332;51.954;20.118;2022-11-20T05:08:29;99910.39;;;-4.10;68.07
35848;BME280;22332;51.954;20.118;2022-11-20T05:11:32;99908.91;;;-4.11;67.97
35848;BME280;22332;51.954;20.118;2022-11-20T05:14:38;99904.89;;;-4.15;68.15
35848;BME280;22332;51.954;20.118;2022-11-20T05:17:40;99905.84;;;-4.20;67.98
35848;BME280;22332;51.954;20.118;2022-11-20T05:20:43;99905.99;;;-4.24;68.17
35848;BME280;22332;51.954;20.118;2022-11-20T05:23:46;99907.33;;;-4.27;68.37
35848;BME280;22332;51.954;20.118;2022-11-20T05:26:49;99906.30;;;-4.27;68.52
35848;BME280;22332;51.954;20.118;2022-11-20T05:29:52;99904.35;;;-4.22;68.49
35848;BME280;22332;51.954;20.118;2022-11-20T05:32:54;99902.13;;;-4.15;68.74
35848;BME280;22332;51.954;20.118;2022-11-20T05:35:59;99902.69;;;-4.08;68.45
35848;BME280;22332;51.954;20.118;2022-11-20T05:39:02;99899.86;;;-4.03;68.52
35848;BME280;22332;51.954;20.118;2022-11-20T05:42:05;99895.75;;;-4.01;68.58
35848;BME280;22332;51.954;20.118;2022-11-20T05:45:26;99891.99;;;-4.02;68.50
35848;BME280;22332;51.954;20.118;2022-11-20T05:48:29;99885.29;;;-4.04;68.54
35848;BME280;22332;51.954;20.118;2022-11-20T05:51:32;99889.40;;;-4.06;68.63
35848;BME280;22332;51.954;20.118;2022-11-20T05:54:35;99886.80;;;-4.10;68.69
35848;BME280;22332;51.954;20.118;2022-11-20T05:57:38;99891.40;;;-4.16;68.83
35848;BME280;22332;51.954;20.118;2022-11-20T06:00:41;99896.39;;;-4.19;68.68
35848;BME280;22332;51.954;20.118;2022-11-20T06:03:44;99891.19;;;-4.23;68.72
35848;BME280;22332;51.954;20.118;2022-11-20T06:06:50;99888.98;;;-4.24;68.68
35848;BME280;22332;51.954;20.118;2022-11-20T06:09:59;99887.13;;;-4.25;68.67
35848;BME280;22332;51.954;20.118;2022-11-20T06:13:04;99890.10;;;-4.30;68.79
35848;BME280;22332;51.954;20.118;2022-11-20T06:16:07;99889.68;;;-4.32;68.62
35848;BME280;22332;51.954;20.118;2022-11-20T06:19:10;99892.23;;;-4.35;68.74
35848;BME280;22332;51.954;20.118;2022-11-20T06:22:14;99893.66;;;-4.36;68.99
35848;BME280;22332;51.954;20.118;2022-11-20T06:25:16;99889.83;;;-4.40;69.02
35848;BME280;22332;51.954;20.118;2022-11-20T06:28:19;99888.42;;;-4.39;69.13
35848;BME280;22332;51.954;20.118;2022-11-20T06:31:24;99895.02;;;-4.39;68.88
35848;BME280;22332;51.954;20.118;2022-11-20T06:34:27;99895.34;;;-4.39;69.06
35848;BME280;22332;51.954;20.118;2022-11-20T06:37:30;99893.64;;;-4.39;69.07
35848;BME280;22332;51.954;20.118;2022-11-20T06:40:32;99890.07;;;-4.37;69.13
35848;BME280;22332;51.954;20.118;2022-11-20T06:43:35;99889.73;;;-4.33;69.01
35848;BME280;22332;51.954;20.118;2022-11-20T06:46:38;99891.33;;;-4.30;69.10
35848;BME280;22332;51.954;20.118;2022-11-20T06:49:46;99890.79;;;-4.26;68.97
35848;BME280;22332;51.954;20.118;2022-11-20T06:52:51;99890.39;;;-4.17;69.05
35848;BME280;22332;51.954;20.118;2022-11-20T06:55:56;99894.16;;;-4.04;69.17
35848;BME280;22332;51.954;20.118;2022-11-20T06:59:04;99886.61;;;-3.91;69.07
35848;BME280;22332;51.954;20.118;2022-11-20T07:02:10;99887.69;;;-3.80;69.21
35848;BME280;22332;51.954;20.118;2022-11-20T07:05:13;99883.42;;;-3.71;69.18
35848;BME280;22332;51.954;20.118;2022-11-20T07:08:16;99883.75;;;-3.66;68.97
35848;BME280;22332;51.954;20.118;2022-11-20T07:11:18;99882.33;;;-3.62;68.91
35848;BME280;22332;51.954;20.118;2022-11-20T07:14:21;99881.38;;;-3.57;68.89
35848;BME280;22332;51.954;20.118;2022-11-20T07:17:24;99877.81;;;-3.51;69.19
35848;BME280;22332;51.954;20.118;2022-11-20T07:20:27;99874.20;;;-3.44;69.10
35848;BME280;22332;51.954;20.118;2022-11-20T07:23:30;99869.16;;;-3.37;69.18
35848;BME280;22332;51.954;20.118;2022-11-20T07:26:33;99862.77;;;-3.31;69.38
35848;BME280;22332;51.954;20.118;2022-11-20T07:29:35;99860.20;;;-3.25;69.41
35848;BME280;22332;51.954;20.118;2022-11-20T07:32:38;99864.06;;;-3.15;69.27
35848;BME280;22332;51.954;20.118;2022-11-20T07:35:41;99862.84;;;-3.04;69.68
35848;BME280;22332;51.954;20.118;2022-11-20T07:38:43;99860.64;;;-2.92;69.65
35848;BME280;22332;51.954;20.118;2022-11-20T07:41:46;99856.48;;;-2.78;69.58
35848;BME280;22332;51.954;20.118;2022-11-20T07:44:49;99854.91;;;-2.64;69.55
35848;BME280;22332;51.954;20.118;2022-11-20T07:47:52;99852.09;;;-2.47;69.42
35848;BME280;22332;51.954;20.118;2022-11-20T07:50:55;99848.95;;;-2.30;69.67
35848;BME280;22332;51.954;20.118;2022-11-20T07:53:58;99840.61;;;-2.15;69.76
35848;BME280;22332;51.954;20.118;2022-11-20T07:57:00;99836.55;;;-2.01;69.56
35848;BME280;22332;51.954;20.118;2022-11-20T08:00:04;99840.54;;;-1.87;69.57
35848;BME280;22332;51.954;20.118;2022-11-20T08:03:14;99834.67;;;-1.73;69.50
35848;BME280;22332;51.954;20.118;2022-11-20T08:06:17;99831.98;;;-1.59;69.66
35848;BME280;22332;51.954;20.118;2022-11-20T08:09:20;99825.47;;;-1.48;69.33
35848;BME280;22332;51.954;20.118;2022-11-20T08:12:23;99821.63;;;-1.39;69.36
35848;BME280;22332;51.954;20.118;2022-11-20T08:15:49;99818.69;;;-1.33;69.29
35848;BME280;22332;51.954;20.118;2022-11-20T08:18:52;99821.48;;;-1.27;68.99
35848;BME280;22332;51.954;20.118;2022-11-20T08:21:58;99819.70;;;-1.18;69.39
35848;BME280;22332;51.954;20.118;2022-11-20T08:25:01;99822.55;;;-1.07;69.25
35848;BME280;22332;51.954;20.118;2022-11-20T08:28:06;99818.91;;;-0.98;69.11
35848;BME280;22332;51.954;20.118;2022-11-20T08:31:09;99816.86;;;-0.90;69.12
35848;BME280;22332;51.954;20.118;2022-11-20T08:34:12;99813.20;;;-0.81;69.02
35848;BME280;22332;51.954;20.118;2022-11-20T08:37:15;99813.66;;;-0.71;69.00
35848;BME280;22332;51.954;20.118;2022-11-20T08:40:17;99807.35;;;-0.62;68.82
35848;BME280;22332;51.954;20.118;2022-11-20T08:43:20;99802.58;;;-0.56;68.77
35848;BME280;22332;51.954;20.118;2022-11-20T08:46:23;99802.77;;;-0.50;68.53
35848;BME280;22332;51.954;20.118;2022-11-20T08:49:26;99800.75;;;-0.43;68.58
35848;BME280;22332;51.954;20.118;2022-11-20T08:52:29;99799.12;;;-0.36;68.48
35848;BME280;22332;51.954;20.118;2022-11-20T08:55:32;99795.92;;;-0.30;68.58
35848;BME280;22332;51.954;20.118;2022-11-20T08:58:37;99792.88;;;-0.23;68.25
35848;BME280;22332;51.954;20.118;2022-11-20T09:01:40;99787.63;;;-0.17;68.37
35848;BME280;22332;51.954;20.118;2022-11-20T09:04:43;99785.10;;;-0.10;68.21
35848;BME280;22332;51.954;20.118;2022-11-20T09:07:45;99782.90;;;-0.03;68.32
35848;BME280;22332;51.954;20.118;2022-11-20T09:10:52;99785.42;;;0.02;68.08
35848;BME280;22332;51.954;20.118;2022-11-20T09:13:55;99784.48;;;0.05;68.02
35848;BME280;22332;51.954;20.118;2022-11-20T09:16:58;99785.08;;;0.07;67.92
35848;BME280;22332;51.954;20.118;2022-11-20T09:20:00;99781.42;;;0.06;67.87
35848;BME280;22332;51.954;20.118;2022-11-20T09:23:03;99781.67;;;0.06;67.77
35848;BME280;22332;51.954;20.118;2022-11-20T09:26:10;99785.16;;;0.05;67.71
35848;BME280;22332;51.954;20.118;2022-11-20T09:29:13;99785.08;;;0.02;67.72
35848;BME280;22332;51.954;20.118;2022-11-20T09:32:15;99781.89;;;-0.01;67.81
35848;BME280;22332;51.954;20.118;2022-11-20T09:35:18;99782.39;;;-0.01;67.61
35848;BME280;22332;51.954;20.118;2022-11-20T09:38:21;99775.55;;;-0.03;67.79
35848;BME280;22332;51.954;20.118;2022-11-20T09:41:45;99774.21;;;-0.04;67.67
35848;BME280;22332;51.954;20.118;2022-11-20T09:45:08;99769.96;;;-0.03;67.62
35848;BME280;22332;51.954;20.118;2022-11-20T09:48:28;99773.11;;;-0.03;67.60
35848;BME280;22332;51.954;20.118;2022-11-20T09:51:42;99773.98;;;-0.03;67.64
35848;BME280;22332;51.954;20.118;2022-11-20T09:54:49;99777.90;;;-0.02;67.66
35848;BME280;22332;51.954;20.118;2022-11-20T09:57:52;99779.06;;;-0.00;67.51
35848;BME280;22332;51.954;20.118;2022-11-20T10:01:08;99775.50;;;0.01;67.50
35848;BME280;22332;51.954;20.118;2022-11-20T10:04:15;99777.55;;;0.02;67.31
35848;BME280;22332;51.954;20.118;2022-11-20T10:07:23;99775.28;;;0.04;67.17
35848;BME280;22332;51.954;20.118;2022-11-20T10:10:34;99775.17;;;0.06;67.15
35848;BME280;22332;51.954;20.118;2022-11-20T10:13:49;99775.17;;;0.09;67.21
35848;BME280;22332;51.954;20.118;2022-11-20T10:17:03;99776.83;;;0.12;67.25
35848;BME280;22332;51.954;20.118;2022-11-20T10:20:19;99780.95;;;0.11;67.01
35848;BME280;22332;51.954;20.118;2022-11-20T10:23:30;99780.19;;;0.10;66.97
35848;BME280;22332;51.954;20.118;2022-11-20T10:26:45;99776.67;;;0.10;66.92
35848;BME280;22332;51.954;20.118;2022-11-20T10:30:08;99769.29;;;0.10;66.77
35848;BME280;22332;51.954;20.118;2022-11-20T10:33:16;99764.88;;;0.11;66.87
35848;BME280;22332;51.954;20.118;2022-11-20T10:36:22;99759.63;;;0.14;66.84
35848;BME280;22332;51.954;20.118;2022-11-20T10:39:33;99756.70;;;0.16;66.71
35848;BME280;22332;51.954;20.118;2022-11-20T10:42:41;99753.58;;;0.18;66.82
35848;BME280;22332;51.954;20.118;2022-11-20T10:45:50;99754.45;;;0.21;66.94
35848;BME280;22332;51.954;20.118;2022-11-20T10:48:57;99749.12;;;0.25;66.92
35848;BME280;22332;51.954;20.118;2022-11-20T10:52:06;99747.17;;;0.28;66.67
35848;BME280;22332;51.954;20.118;2022-11-20T10:55:23;99748.21;;;0.30;66.63
35848;BME280;22332;51.954;20.118;2022-11-20T10:58:35;99744.00;;;0.33;66.57
35848;BME280;22332;51.954;20.118;2022-11-20T11:01:42;99738.38;;;0.36;66.62
35848;BME280;22332;51.954;20.118;2022-11-20T11:04:46;99731.70;;;0.39;66.68
35848;BME280;22332;51.954;20.118;2022-11-20T11:07:52;99737.35;;;0.44;66.71
35848;BME280;22332;51.954;20.118;2022-11-20T11:10:59;99731.23;;;0.50;66.65
35848;BME280;22332;51.954;20.118;2022-11-20T11:14:07;99719.09;;;0.53;66.46
35848;BME280;22332;51.954;20.118;2022-11-20T11:17:21;99720.23;;;0.57;66.10
35848;BME280;22332;51.954;20.118;2022-11-20T11:20:26;99717.77;;;0.57;65.59
35848;BME280;22332;51.954;20.118;2022-11-20T11:23:33;99720.71;;;0.58;65.55
35848;BME280;22332;51.954;20.118;2022-11-20T11:26:36;99721.30;;;0.59;65.78
35848;BME280;22332;51.954;20.118;2022-11-20T11:29:39;99724.64;;;0.62;65.84
35848;BME280;22332;51.954;20.118;2022-11-20T11:32:42;99719.30;;;0.63;65.84
35848;BME280;22332;51.954;20.118;2022-11-20T11:35:47;99716.17;;;0.65;65.81
35848;BME280;22332;51.954;20.118;2022-11-20T11:38:52;99713.07;;;0.67;65.73
35848;BME280;22332;51.954;20.118;2022-11-20T11:41:55;99709.04;;;0.70;65.88
35848;BME280;22332;51.954;20.118;2022-11-20T11:45:00;99702.91;;;0.72;65.69
35848;BME280;22332;51.954;20.118;2022-11-20T11:48:09;99701.81;;;0.76;65.47
35848;BME280;22332;51.954;20.118;2022-11-20T11:51:12;99704.55;;;0.79;65.26
35848;BME280;22332;51.954;20.118;2022-11-20T11:54:25;99700.89;;;0.82;65.33
35848;BME280;22332;51.954;20.118;2022-11-20T11:57:40;99698.19;;;0.85;65.31
35848;BME280;22332;51.954;20.118;2022-11-20T12:00:53;99691.49;;;0.89;65.14
35848;BME280;22332;51.954;20.118;2022-11-20T12:04:13;99689.13;;;0.92;65.07
35848;BME280;22332;51.954;20.118;2022-11-20T12:07:25;99680.20;;;0.97;64.70
35848;BME280;22332;51.954;20.118;2022-11-20T12:10:40;99676.30;;;1.01;65.00
35848;BME280;22332;51.954;20.118;2022-11-20T12:13:50;99678.48;;;1.04;64.84
35848;BME280;22332;51.954;20.118;2022-11-20T12:16:55;99678.09;;;1.08;65.10
35848;BME280;22332;51.954;20.118;2022-11-20T12:19:59;99676.36;;;1.12;64.91
35848;BME280;22332;51.954;20.118;2022-11-20T12:23:08;99674.80;;;1.17;64.89
35848;BME280;22332;51.954;20.118;2022-11-20T12:26:20;99670.23;;;1.20;64.67
35848;BME280;22332;51.954;20.118;2022-11-20T12:29:36;99666.79;;;1.22;64.77
35848;BME280;22332;51.954;20.118;2022-11-20T12:33:12;99665.83;;;1.26;64.64
35848;BME280;22332;51.954;20.118;2022-11-20T12:36:29;99659.75;;;1.29;64.54
35848;BME280;22332;51.954;20.118;2022-11-20T12:39:41;99659.05;;;1.37;64.82
35848;BME280;22332;51.954;20.118;2022-11-20T12:42:54;99656.11;;;1.46;64.48
35848;BME280;22332;51.954;20.118;2022-11-20T12:46:26;99653.67;;;1.55;64.53
35848;BME280;22332;51.954;20.118;2022-11-20T12:49:39;99649.41;;;1.59;64.28
35848;BME280;22332;51.954;20.118;2022-11-20T12:52:48;99639.82;;;1.61;64.35
35848;BME280;22332;51.954;20.118;2022-11-20T12:56:00;99640.30;;;1.62;64.25
35848;BME280;22332;51.954;20.118;2022-11-20T12:59:18;99635.33;;;1.63;64.19
35848;BME280;22332;51.954;20.118;2022-11-20T13:02:27;99630.16;;;1.64;63.98
35848;BME280;22332;51.954;20.118;2022-11-20T13:05:39;99626.71;;;1.65;64.10
35848;BME280;22332;51.954;20.118;2022-11-20T13:08:49;99617.61;;;1.67;64.01
35848;BME280;22332;51.954;20.118;2022-11-20T13:12:01;99617.19;;;1.68;63.90
35848;BME280;22332;51.954;20.118;2022-11-20T13:15:17;99610.10;;;1.69;64.00
35848;BME280;22332;51.954;20.118;2022-11-20T13:18:25;99608.75;;;1.73;64.12
35848;BME280;22332;51.954;20.118;2022-11-20T13:21:37;99604.17;;;1.76;63.93
35848;BME280;22332;51.954;20.118;2022-11-20T13:24:51;99602.23;;;1.76;64.02
35848;BME280;22332;51.954;20.118;2022-11-20T13:27:55;99602.55;;;1.74;64.01
35848;BME280;22332;51.954;20.118;2022-11-20T13:30:58;99595.95;;;1.71;63.75
35848;BME280;22332;51.954;20.118;2022-11-20T13:34:04;99591.83;;;1.65;63.96
35848;BME280;22332;51.954;20.118;2022-11-20T13:37:26;99590.13;;;1.62;64.14
35848;BME280;22332;51.954;20.118;2022-11-20T13:40:30;99588.87;;;1.60;64.13
35848;BME280;22332;51.954;20.118;2022-11-20T13:43:39;99588.92;;;1.59;64.01
35848;BME280;22332;51.954;20.118;2022-11-20T13:46:45;99582.76;;;1.57;64.02
35848;BME280;22332;51.954;20.118;2022-11-20T13:49:48;99577.64;;;1.55;64.14
35848;BME280;22332;51.954;20.118;2022-11-20T13:52:58;99575.05;;;1.54;63.89
35848;BME280;22332;51.954;20.118;2022-11-20T13:56:10;99571.09;;;1.51;64.14
35848;BME280;22332;51.954;20.118;2022-11-20T13:59:30;99570.86;;;1.49;64.22
35848;BME280;22332;51.954;20.118;2022-11-20T14:02:38;99569.29;;;1.49;63.97
35848;BME280;22332;51.954;20.118;2022-11-20T14:05:49;99573.93;;;1.48;64.04
35848;BME280;22332;51.954;20.118;2022-11-20T14:08:52;99572.88;;;1.46;63.87
35848;BME280;22332;51.954;20.118;2022-11-20T14:11:55;99571.33;;;1.43;63.95
35848;BME280;22332;51.954;20.118;2022-11-20T14:14:59;99569.27;;;1.40;64.02
35848;BME280;22332;51.954;20.118;2022-11-20T14:18:13;99572.31;;;1.37;63.89
35848;BME280;22332;51.954;20.118;2022-11-20T14:21:23;99570.67;;;1.33;64.02
35848;BME280;22332;51.954;20.118;2022-11-20T14:24:26;99571.65;;;1.29;63.96
35848;BME280;22332;51.954;20.118;2022-11-20T14:27:29;99569.66;;;1.25;63.90
35848;BME280;22332;51.954;20.118;2022-11-20T14:30:42;99571.46;;;1.19;63.77
35848;BME280;22332;51.954;20.118;2022-11-20T14:33:45;99571.84;;;1.11;63.90
35848;BME280;22332;51.954;20.118;2022-11-20T14:36:50;99572.86;;;1.05;63.93
35848;BME280;22332;51.954;20.118;2022-11-20T14:39:55;99576.11;;;0.96;63.89
35848;BME280;22332;51.954;20.118;2022-11-20T14:42:59;99573.46;;;0.86;63.78
35848;BME280;22332;51.954;20.118;2022-11-20T14:46:04;99573.71;;;0.75;63.69
35848;BME280;22332;51.954;20.118;2022-11-20T14:49:10;99572.95;;;0.64;63.86
35848;BME280;22332;51.954;20.118;2022-11-20T14:52:15;99570.43;;;0.52;63.80
35848;BME280;22332;51.954;20.118;2022-11-20T14:55:27;99565.07;;;0.41;63.99
35848;BME280;22332;51.954;20.118;2022-11-20T14:58:32;99564.42;;;0.29;63.93
35848;BME280;22332;51.954;20.118;2022-11-20T15:01:35;99559.52;;;0.17;63.79
35848;BME280;22332;51.954;20.118;2022-11-20T15:04:46;99554.64;;;0.04;63.80
35848;BME280;22332;51.954;20.118;2022-11-20T15:07:51;99549.62;;;-0.08;63.92
35848;BME280;22332;51.954;20.118;2022-11-20T15:10:55;99543.45;;;-0.18;63.93
35848;BME280;22332;51.954;20.118;2022-11-20T15:13:59;99545.52;;;-0.27;63.78
35848;BME280;22332;51.954;20.118;2022-11-20T15:17:07;99546.48;;;-0.37;64.03
35848;BME280;22332;51.954;20.118;2022-11-20T15:20:14;99542.70;;;-0.44;64.04
35848;BME280;22332;51.954;20.118;2022-11-20T15:23:19;99547.41;;;-0.51;63.93
35848;BME280;22332;51.954;20.118;2022-11-20T15:26:24;99550.77;;;-0.60;64.10
35848;BME280;22332;51.954;20.118;2022-11-20T15:29:28;99550.95;;;-0.68;63.94
35848;BME280;22332;51.954;20.118;2022-11-20T15:32:30;99552.75;;;-0.77;64.09
35848;BME280;22332;51.954;20.118;2022-11-20T15:35:33;99549.55;;;-0.85;64.20
35848;BME280;22332;51.954;20.118;2022-11-20T15:38:37;99545.63;;;-0.91;64.31
35848;BME280;22332;51.954;20.118;2022-11-20T15:41:39;99545.89;;;-0.99;64.39
35848;BME280;22332;51.954;20.118;2022-11-20T15:44:42;99541.76;;;-1.05;64.27
35848;BME280;22332;51.954;20.118;2022-11-20T15:47:45;99536.70;;;-1.10;64.50
35848;BME280;22332;51.954;20.118;2022-11-20T15:50:52;99536.79;;;-1.18;64.38
35848;BME280;22332;51.954;20.118;2022-11-20T15:53:56;99534.54;;;-1.24;64.60
35848;BME280;22332;51.954;20.118;2022-11-20T15:56:59;99531.10;;;-1.27;64.63
35848;BME280;22332;51.954;20.118;2022-11-20T16:00:03;99523.58;;;-1.32;64.60
35848;BME280;22332;51.954;20.118;2022-11-20T16:03:14;99520.77;;;-1.38;64.54
35848;BME280;22332;51.954;20.118;2022-11-20T16:06:17;99521.46;;;-1.43;64.51
35848;BME280;22332;51.954;20.118;2022-11-20T16:09:20;99519.40;;;-1.49;64.69
35848;BME280;22332;51.954;20.118;2022-11-20T16:12:23;99514.98;;;-1.54;64.52
35848;BME280;22332;51.954;20.118;2022-11-20T16:15:40;99515.29;;;-1.59;64.70